createdAt,value
2023-02-10T00:01:46.816Z,86.77
2023-02-10T00:04:16.871Z,86.98
2023-02-10T00:06:44.901Z,86.47
2023-02-10T00:09:15.423Z,86.29
2023-02-10T00:12:00.709Z,86.82
2023-02-10T00:14:30.294Z,85.84
2023-02-10T00:16:59.464Z,86.28
2023-02-10T00:19:30.497Z,86.04
2023-02-10T00:21:58.680Z,86.78
2023-02-10T00:24:26.799Z,86.68
2023-02-10T00:26:55.443Z,87.66
2023-02-10T00:29:23.730Z,87.84
2023-02-10T00:31:55.071Z,87.89
2023-02-10T00:34:23.423Z,88.64
2023-02-10T00:36:52.938Z,88.60
2023-02-10T00:39:21.023Z,89.34
2023-02-10T00:41:52.557Z,89.26
2023-02-10T00:44:20.965Z,89.50
2023-02-10T00:46:49.482Z,89.84
2023-02-10T00:49:20.786Z,90.19
2023-02-10T00:51:49.129Z,90.80
2023-02-10T00:54:18.756Z,90.69
2023-02-10T00:56:46.867Z,91.63
2023-02-10T00:59:16.606Z,92.08
2023-02-10T01:01:44.861Z,91.69
2023-02-10T01:04:13.956Z,92.49
2023-02-10T01:06:42.006Z,92.60
2023-02-10T01:09:10.119Z,92.75
2023-02-10T01:11:41.544Z,93.13
2023-02-10T01:14:09.879Z,92.74
2023-02-10T01:16:38.315Z,92.29
2023-02-10T01:19:06.689Z,93.14
2023-02-10T01:21:37.735Z,93.65
2023-02-10T01:24:06.825Z,93.98
2023-02-10T01:26:35.309Z,93.79
2023-02-10T01:29:04.895Z,94.39
2023-02-10T01:31:33.547Z,94.56
2023-02-10T01:34:02.691Z,94.36
2023-02-10T01:36:30.956Z,94.64
2023-02-10T01:38:59.078Z,95.17
2023-02-10T01:41:27.060Z,95.04
2023-02-10T01:43:57.770Z,95.66
2023-02-10T01:46:27.655Z,95.32
2023-02-10T01:49:02.585Z,95.89
2023-02-10T01:51:39.493Z,95.50
2023-02-10T01:54:10.965Z,96.07
2023-02-10T01:56:39.520Z,95.44
2023-02-10T01:59:07.865Z,95.94
2023-02-10T02:01:37.548Z,96.65
2023-02-10T02:04:05.759Z,96.75
2023-02-10T02:06:35.246Z,96.93
2023-02-10T02:09:04.318Z,97.14
2023-02-10T02:11:43.963Z,97.37
2023-02-10T02:14:27.103Z,97.06
2023-02-10T02:17:04.890Z,96.94
2023-02-10T02:20:33.022Z,96.79
2023-02-10T02:23:14.717Z,97.23
2023-02-10T02:26:04.079Z,97.31
2023-02-10T02:28:41.908Z,96.57
2023-02-10T02:31:39.858Z,97.01
2023-02-10T02:34:14.211Z,95.90
2023-02-10T02:39:46.981Z,96.49
2023-02-10T02:42:21.753Z,96.57
2023-02-10T02:44:54.027Z,96.35
2023-02-10T02:47:37.017Z,96.31
2023-02-10T02:50:22.512Z,96.41
2023-02-10T02:53:01.685Z,96.46
2023-02-10T02:55:43.746Z,96.25
2023-02-10T02:58:22.481Z,96.14
2023-02-10T03:00:52.288Z,95.99
2023-02-10T03:03:21.544Z,96.23
2023-02-10T03:05:51.177Z,96.80
2023-02-10T03:08:19.119Z,96.81
2023-02-10T03:10:47.620Z,96.18
2023-02-10T03:13:15.765Z,96.13
2023-02-10T03:15:44.617Z,96.55
2023-02-10T03:18:13.197Z,96.92
2023-02-10T03:20:41.574Z,96.35
2023-02-10T03:23:11.162Z,96.40
2023-02-10T03:25:39.373Z,96.69
2023-02-10T03:28:07.993Z,96.53
2023-02-10T03:30:36.113Z,97.34
2023-02-10T03:33:04.369Z,97.37
2023-02-10T03:35:32.509Z,97.56
2023-02-10T03:38:00.468Z,97.51
2023-02-10T03:40:29.949Z,97.58
2023-02-10T03:42:58.576Z,97.99
2023-02-10T03:45:26.527Z,98.24
2023-02-10T03:47:54.696Z,98.52
2023-02-10T03:50:22.795Z,98.40
2023-02-10T03:52:51.229Z,98.32
2023-02-10T03:55:20.319Z,98.36
2023-02-10T03:57:49.849Z,98.36
2023-02-10T04:00:18.700Z,98.57
2023-02-10T04:02:46.745Z,98.75
2023-02-10T04:05:15.020Z,98.43
2023-02-10T04:07:43.287Z,98.72
2023-02-10T04:10:11.772Z,98.19
2023-02-10T04:12:40.247Z,98.72
2023-02-10T04:15:10.650Z,99.17
2023-02-10T04:17:38.912Z,99.68
2023-02-10T04:20:07.856Z,99.80
2023-02-10T04:22:35.725Z,100.00
2023-02-10T04:25:03.815Z,100.00
2023-02-10T04:27:32.051Z,100.00
2023-02-10T04:30:00.884Z,100.00
2023-02-10T04:32:30.599Z,100.00
2023-02-10T04:34:58.725Z,100.00
2023-02-10T04:37:26.850Z,100.00
2023-02-10T04:39:54.804Z,100.00
2023-02-10T04:42:31.025Z,100.00
2023-02-10T04:44:59.472Z,100.00
2023-02-10T04:47:27.656Z,100.00
2023-02-10T04:49:57.444Z,100.00
2023-02-10T04:52:25.278Z,100.00
2023-02-10T04:54:53.373Z,100.00
2023-02-10T04:57:21.535Z,100.00
2023-02-10T04:59:49.514Z,100.00
2023-02-10T05:02:17.654Z,100.00
2023-02-10T05:04:45.600Z,100.00
2023-02-10T05:07:15.261Z,100.00
2023-02-10T05:09:43.201Z,100.00
2023-02-10T05:12:11.655Z,100.00
2023-02-10T05:14:39.716Z,100.00
2023-02-10T05:17:08.054Z,100.00
2023-02-10T05:19:36.206Z,100.00
2023-02-10T05:22:04.290Z,100.00
2023-02-10T05:24:34.302Z,100.00
2023-02-10T05:27:02.291Z,100.00
2023-02-10T05:29:30.566Z,100.00
2023-02-10T05:31:58.748Z,100.00
2023-02-10T05:34:27.474Z,100.00
2023-02-10T05:36:55.395Z,100.00
2023-02-10T05:39:26.216Z,100.00
2023-02-10T05:41:58.790Z,100.00
2023-02-10T05:44:29.097Z,100.00
2023-02-10T05:46:57.816Z,100.00
2023-02-10T05:49:26.707Z,100.00
2023-02-10T05:51:54.813Z,100.00
2023-02-10T05:54:22.855Z,100.00
2023-02-10T05:56:51.554Z,100.00
2023-02-10T05:59:21.187Z,100.00
2023-02-10T06:01:49.306Z,100.00
2023-02-10T06:04:17.275Z,100.00
2023-02-10T06:06:45.276Z,100.00
2023-02-10T06:09:13.210Z,100.00
2023-02-10T06:11:41.207Z,100.00
2023-02-10T06:14:09.066Z,100.00
2023-02-10T06:16:38.528Z,100.00
2023-02-10T06:19:06.716Z,100.00
2023-02-10T06:21:34.696Z,100.00
2023-02-10T06:24:02.862Z,100.00
2023-02-10T06:26:31.805Z,100.00
2023-02-10T06:28:59.849Z,100.00
2023-02-10T06:31:28.446Z,100.00
2023-02-10T06:33:57.949Z,100.00
2023-02-10T06:36:26.355Z,100.00
2023-02-10T06:38:54.343Z,100.00
2023-02-10T06:41:22.496Z,100.00
2023-02-10T06:43:51.977Z,100.00
2023-02-10T06:46:20.018Z,100.00
2023-02-10T06:48:48.220Z,100.00
2023-02-10T06:51:17.572Z,100.00
2023-02-10T06:53:46.167Z,100.00
2023-02-10T06:56:15.271Z,100.00
2023-02-10T06:58:43.252Z,100.00
2023-02-10T07:01:12.966Z,100.00
2023-02-10T07:03:41.696Z,100.00
2023-02-10T07:06:09.745Z,100.00
2023-02-10T07:08:39.816Z,100.00
2023-02-10T07:11:08.462Z,100.00
2023-02-10T07:13:36.332Z,100.00
2023-02-10T07:16:04.415Z,100.00
2023-02-10T07:18:32.316Z,100.00
2023-02-10T07:21:00.299Z,100.00
2023-02-10T07:23:36.297Z,100.00
2023-02-10T07:26:07.131Z,100.00
2023-02-10T07:28:35.717Z,100.00
2023-02-10T07:31:04.021Z,100.00
2023-02-10T07:33:32.126Z,100.00
2023-02-10T07:36:02.046Z,100.00
2023-02-10T07:38:30.473Z,100.00
2023-02-10T07:41:01.554Z,100.00
2023-02-10T07:43:31.001Z,100.00
2023-02-10T07:45:59.117Z,100.00
2023-02-10T07:48:27.914Z,100.00
2023-02-10T07:50:55.979Z,100.00
2023-02-10T07:53:24.145Z,100.00
2023-02-10T07:55:52.469Z,100.00
2023-02-10T07:58:20.762Z,100.00
2023-02-10T08:00:50.506Z,100.00
2023-02-10T08:03:18.801Z,100.00
2023-02-10T08:05:49.642Z,100.00
2023-02-10T08:08:18.385Z,100.00
2023-02-10T08:10:46.969Z,100.00
2023-02-10T08:13:15.160Z,100.00
2023-02-10T08:15:43.220Z,100.00
2023-02-10T08:18:12.962Z,100.00
2023-02-10T08:20:41.952Z,100.00
2023-02-10T08:23:16.593Z,100.00
2023-02-10T08:25:45.023Z,100.00
2023-02-10T08:28:13.306Z,100.00
2023-02-10T08:30:42.051Z,100.00
2023-02-10T08:33:10.081Z,100.00
2023-02-10T08:35:40.256Z,100.00
2023-02-10T08:38:10.220Z,100.00
2023-02-10T08:40:38.528Z,100.00
2023-02-10T08:43:06.727Z,100.00
2023-02-10T08:45:35.074Z,100.00
2023-02-10T08:48:03.686Z,100.00
2023-02-10T08:50:31.627Z,100.00
2023-02-10T08:53:01.300Z,100.00
2023-02-10T08:55:29.259Z,100.00
2023-02-10T08:57:57.204Z,100.00
2023-02-10T09:00:26.783Z,100.00
2023-02-10T09:02:54.858Z,100.00
2023-02-10T09:05:22.934Z,100.00
2023-02-10T09:07:51.087Z,100.00
2023-02-10T09:10:20.620Z,100.00
2023-02-10T09:12:49.257Z,100.00
2023-02-10T09:15:17.424Z,100.00
2023-02-10T09:17:45.381Z,100.00
2023-02-10T09:20:14.374Z,100.00
2023-02-10T09:22:42.753Z,100.00
2023-02-10T09:25:11.021Z,100.00
2023-02-10T09:27:40.322Z,100.00
2023-02-10T09:30:08.949Z,100.00
2023-02-10T09:32:36.870Z,100.00
2023-02-10T09:35:05.013Z,100.00
2023-02-10T09:37:33.151Z,100.00
2023-02-10T09:40:01.128Z,100.00
2023-02-10T09:42:42.242Z,100.00
2023-02-10T09:45:19.451Z,100.00
2023-02-10T09:47:51.131Z,100.00
2023-02-10T09:50:49.553Z,100.00
2023-02-10T09:53:22.410Z,100.00
2023-02-10T09:55:52.713Z,100.00
2023-02-10T09:58:26.944Z,100.00
2023-02-10T10:01:00.950Z,99.72
2023-02-10T10:03:35.803Z,98.97
2023-02-10T10:06:12.696Z,98.39
2023-02-10T10:08:50.209Z,97.76
2023-02-10T10:11:26.685Z,97.22
2023-02-10T10:13:56.853Z,97.52
2023-02-10T10:16:44.782Z,96.42
2023-02-10T10:19:21.355Z,96.44
2023-02-10T10:21:57.066Z,95.95
2023-02-10T10:24:48.354Z,95.71
2023-02-10T10:27:27.834Z,95.65
2023-02-10T10:29:58.009Z,95.93
2023-02-10T10:32:40.998Z,96.06
2023-02-10T10:35:16.294Z,96.56
2023-02-10T10:37:45.546Z,96.47
2023-02-10T10:40:19.346Z,96.11
2023-02-10T10:42:51.071Z,95.93
2023-02-10T10:45:22.241Z,96.20
2023-02-10T10:47:57.371Z,96.09
2023-02-10T10:50:26.131Z,96.22
2023-02-10T10:52:56.291Z,95.71
2023-02-10T10:55:29.347Z,95.71
2023-02-10T10:57:58.325Z,95.36
2023-02-10T11:00:30.141Z,95.59
2023-02-10T11:03:02.390Z,95.84
2023-02-10T11:05:33.875Z,94.96
2023-02-10T11:08:02.734Z,95.22
2023-02-10T11:10:39.188Z,94.62
2023-02-10T11:13:09.460Z,94.45
2023-02-10T11:15:41.432Z,94.31
2023-02-10T11:18:19.543Z,94.39
2023-02-10T11:20:56.592Z,94.34
2023-02-10T11:23:25.033Z,94.14
2023-02-10T11:26:05.247Z,94.45
2023-02-10T11:28:36.833Z,94.14
2023-02-10T11:31:07.138Z,93.81
2023-02-10T11:33:37.351Z,94.17
2023-02-10T11:36:08.686Z,93.61
2023-02-10T11:38:38.204Z,93.86
2023-02-10T11:41:10.500Z,93.11
2023-02-10T11:43:42.995Z,93.18
2023-02-10T11:46:21.361Z,93.39
2023-02-10T11:48:57.121Z,93.23
2023-02-10T11:51:25.982Z,92.96
2023-02-10T11:53:54.139Z,92.85
2023-02-10T11:56:41.487Z,93.22
2023-02-10T11:59:19.230Z,93.04
2023-02-10T12:01:59.821Z,92.27
2023-02-10T12:04:46.391Z,91.81
2023-02-10T12:07:28.088Z,91.50
2023-02-10T12:10:01.523Z,91.53
2023-02-10T12:12:39.499Z,91.65
2023-02-10T12:15:18.301Z,92.11
2023-02-10T12:17:58.385Z,92.62
2023-02-10T12:20:44.152Z,91.99
2023-02-10T12:23:37.312Z,92.32
2023-02-10T12:26:12.526Z,92.52
2023-02-10T12:28:56.176Z,91.61
2023-02-10T12:31:33.837Z,91.54
2023-02-10T12:34:36.285Z,90.83
2023-02-10T12:37:21.070Z,90.79
2023-02-10T12:39:57.280Z,90.16
2023-02-10T12:42:41.833Z,90.54
2023-02-10T12:45:19.380Z,90.29
2023-02-10T12:47:58.990Z,91.17
2023-02-10T12:50:45.618Z,91.04
2023-02-10T12:53:21.072Z,90.75
2023-02-10T12:55:55.118Z,91.10
2023-02-10T12:58:27.631Z,90.28
2023-02-10T13:01:05.944Z,90.37
2023-02-10T13:03:36.942Z,90.19
2023-02-10T13:06:23.185Z,91.21
2023-02-10T13:08:57.940Z,90.97
2023-02-10T13:11:37.004Z,90.80
2023-02-10T13:14:11.802Z,91.72
2023-02-10T13:16:43.125Z,91.23
2023-02-10T13:19:22.923Z,91.42
2023-02-10T13:21:59.029Z,92.45
2023-02-10T13:24:33.423Z,92.51
2023-02-10T13:27:13.583Z,92.86
2023-02-10T13:29:51.699Z,92.81
2023-02-10T13:32:32.180Z,93.18
2023-02-10T13:35:03.055Z,92.30
2023-02-10T13:37:37.161Z,91.78
2023-02-10T13:40:17.479Z,92.16
2023-02-10T13:42:52.745Z,91.77
2023-02-10T13:45:23.707Z,91.68
2023-02-10T13:47:55.164Z,91.16
2023-02-10T13:50:30.474Z,90.45
2023-02-10T13:53:01.681Z,90.88
2023-02-10T13:55:41.788Z,90.21
2023-02-10T13:58:34.096Z,90.33
2023-02-10T14:01:03.154Z,89.39
2023-02-10T14:03:33.224Z,89.39
2023-02-10T14:06:03.094Z,89.63
2023-02-10T14:08:36.427Z,89.65
2023-02-10T14:11:26.202Z,90.03
2023-02-10T14:14:00.927Z,89.68
2023-02-10T14:16:32.985Z,89.69
2023-02-10T14:19:04.555Z,89.64
2023-02-10T14:21:43.595Z,90.45
2023-02-10T14:24:26.306Z,90.22
2023-02-10T14:26:59.096Z,89.75
2023-02-10T14:29:30.493Z,89.31
2023-02-10T14:32:00.832Z,89.71
2023-02-10T14:34:31.937Z,90.18
2023-02-10T14:37:03.958Z,89.69
2023-02-10T14:39:33.171Z,90.06
2023-02-10T14:42:06.486Z,89.85
2023-02-10T14:44:39.506Z,90.61
2023-02-10T14:47:08.775Z,90.85
2023-02-10T14:49:38.136Z,90.53
2023-02-10T14:52:06.251Z,91.10
2023-02-10T14:54:42.130Z,91.49
2023-02-10T14:57:14.839Z,91.92
2023-02-10T14:59:42.958Z,92.21
2023-02-10T15:02:25.763Z,92.23
2023-02-10T15:04:57.537Z,92.19
2023-02-10T15:07:28.809Z,91.65
2023-02-10T15:10:00.505Z,92.05
2023-02-10T15:12:32.927Z,92.24
2023-02-10T15:15:07.149Z,92.80
2023-02-10T15:17:40.513Z,92.30
2023-02-10T15:20:29.760Z,92.34
2023-02-10T15:23:29.065Z,91.99
2023-02-10T15:26:09.370Z,92.87
2023-02-10T15:28:39.105Z,92.97
2023-02-10T15:31:20.615Z,92.84
2023-02-10T15:33:54.504Z,93.33
2023-02-10T15:36:25.170Z,92.85
2023-02-10T15:39:00.213Z,92.74
2023-02-10T15:41:38.295Z,93.12
2023-02-10T15:44:30.731Z,93.35
2023-02-10T15:47:21.461Z,93.56
2023-02-10T15:49:51.223Z,94.01
2023-02-10T15:52:22.823Z,94.32
2023-02-10T15:54:52.272Z,94.30
2023-02-10T15:57:20.690Z,94.67
2023-02-10T15:59:52.286Z,95.09
2023-02-10T16:02:20.680Z,95.43
2023-02-10T16:04:48.953Z,95.40
2023-02-10T16:07:22.907Z,96.05
2023-02-10T16:09:50.892Z,96.51
2023-02-10T16:12:20.285Z,96.27
2023-02-10T16:14:49.885Z,96.92
2023-02-10T16:17:23.653Z,96.78
2023-02-10T16:19:52.352Z,97.18
2023-02-10T16:22:20.411Z,97.21
2023-02-10T16:24:49.388Z,97.71
2023-02-10T16:27:17.857Z,97.66
2023-02-10T16:29:47.072Z,97.94
2023-02-10T16:32:16.507Z,98.01
2023-02-10T16:34:44.678Z,98.18
2023-02-10T16:37:20.662Z,98.48
2023-02-10T16:39:49.774Z,98.11
2023-02-10T16:42:18.186Z,97.93
2023-02-10T16:44:48.510Z,98.11
2023-02-10T16:47:21.971Z,98.50
2023-02-10T16:49:50.504Z,98.32
2023-02-10T16:52:21.484Z,98.22
2023-02-10T16:54:49.854Z,98.37
2023-02-10T16:57:17.968Z,98.18
2023-02-10T16:59:47.452Z,98.40
2023-02-10T17:02:15.325Z,98.11
2023-02-10T17:04:44.471Z,98.45
2023-02-10T17:07:13.841Z,98.53
2023-02-10T17:09:41.947Z,97.90
2023-02-10T17:12:10.200Z,98.43
2023-02-10T17:14:38.104Z,98.53
2023-02-10T17:17:06.094Z,98.72
2023-02-10T17:19:34.402Z,98.06
2023-02-10T17:22:03.750Z,98.48
2023-02-10T17:24:31.996Z,98.97
2023-02-10T17:26:59.837Z,98.12
2023-02-10T17:29:27.757Z,98.71
2023-02-10T17:31:55.905Z,97.94
2023-02-10T17:34:23.866Z,98.36
2023-02-10T17:36:51.726Z,98.46
2023-02-10T17:39:32.548Z,97.84
2023-02-10T17:42:00.936Z,98.20
2023-02-10T17:44:30.260Z,98.16
2023-02-10T17:46:58.139Z,98.13
2023-02-10T17:49:28.751Z,98.61
2023-02-10T17:51:57.126Z,98.19
2023-02-10T17:54:28.815Z,99.01
2023-02-10T17:56:57.187Z,98.45
2023-02-10T17:59:25.487Z,99.07
2023-02-10T18:01:59.452Z,99.53
2023-02-10T18:04:27.897Z,99.48
2023-02-10T18:06:55.920Z,99.09
2023-02-10T18:09:24.245Z,99.63
2023-02-10T18:11:53.537Z,99.10
2023-02-10T18:14:21.625Z,99.48
2023-02-10T18:16:49.705Z,98.89
2023-02-10T18:19:17.610Z,99.43
2023-02-10T18:21:45.477Z,99.28
2023-02-10T18:24:13.560Z,99.30
2023-02-10T18:26:41.552Z,99.03
2023-02-10T18:29:10.741Z,98.80
2023-02-10T18:31:39.151Z,99.27
2023-02-10T18:34:07.504Z,98.54
2023-02-10T18:36:35.748Z,98.50
2023-02-10T18:39:03.872Z,98.49
2023-02-10T18:41:31.958Z,98.35
2023-02-10T18:43:59.822Z,97.99
2023-02-10T18:46:29.229Z,98.47
2023-02-10T18:48:57.297Z,98.34
2023-02-10T18:51:27.063Z,98.16
2023-02-10T18:53:54.917Z,97.83
2023-02-10T18:56:22.878Z,97.18
2023-02-10T18:58:50.687Z,97.10
2023-02-10T19:01:20.845Z,96.95
2023-02-10T19:03:51.098Z,96.23
2023-02-10T19:06:19.885Z,96.20
2023-02-10T19:08:47.975Z,95.84
2023-02-10T19:11:16.902Z,95.69
2023-02-10T19:13:45.497Z,95.78
2023-02-10T19:16:14.079Z,95.71
2023-02-10T19:18:42.543Z,95.20
2023-02-10T19:21:12.358Z,95.09
2023-02-10T19:23:42.389Z,94.56
2023-02-10T19:26:11.052Z,95.16
2023-02-10T19:28:39.718Z,95.11
2023-02-10T19:31:10.082Z,95.40
2023-02-10T19:33:38.729Z,94.52
2023-02-10T19:36:12.687Z,94.86
2023-02-10T19:38:40.601Z,94.73
2023-02-10T19:41:10.591Z,94.65
2023-02-10T19:43:38.828Z,94.51
2023-02-10T19:46:08.062Z,94.25
2023-02-10T19:48:39.681Z,94.51
2023-02-10T19:51:08.647Z,94.91
2023-02-10T19:53:38.513Z,94.57
2023-02-10T19:56:07.479Z,94.68
2023-02-10T19:58:35.753Z,94.13
2023-02-10T20:01:05.382Z,94.01
2023-02-10T20:03:34.034Z,94.43
2023-02-10T20:06:02.116Z,94.32
2023-02-10T20:08:30.318Z,93.97
2023-02-10T20:10:59.832Z,93.70
2023-02-10T20:13:28.494Z,93.40
2023-02-10T20:15:56.552Z,93.49
2023-02-10T20:18:24.553Z,94.17
2023-02-10T20:20:58.799Z,93.16
2023-02-10T20:23:28.046Z,93.67
2023-02-10T20:25:56.514Z,93.59
2023-02-10T20:28:26.781Z,93.34
2023-02-10T20:30:55.788Z,94.02
2023-02-10T20:33:23.997Z,93.87
2023-02-10T20:36:01.861Z,93.78
2023-02-10T20:38:30.401Z,93.43
2023-02-10T20:41:00.039Z,93.82
2023-02-10T20:43:29.662Z,93.81
2023-02-10T20:45:57.894Z,94.41
2023-02-10T20:48:25.811Z,94.05
2023-02-10T20:50:53.951Z,93.91
2023-02-10T20:53:21.749Z,93.94
2023-02-10T20:55:49.956Z,93.38
2023-02-10T20:58:18.060Z,93.63
2023-02-10T21:00:47.423Z,93.83
2023-02-10T21:03:15.661Z,92.67
2023-02-10T21:05:43.904Z,92.90
2023-02-10T21:08:11.692Z,93.23
2023-02-10T21:10:41.077Z,92.38
2023-02-10T21:13:08.990Z,93.00
2023-02-10T21:15:36.931Z,92.94
2023-02-10T21:18:06.516Z,92.58
2023-02-10T21:20:34.776Z,92.24
2023-02-10T21:23:02.706Z,92.13
2023-02-10T21:25:30.576Z,92.88
2023-02-10T21:27:58.516Z,92.55
2023-02-10T21:30:27.605Z,92.73
2023-02-10T21:32:55.653Z,92.44
2023-02-10T21:35:25.181Z,92.25
2023-02-10T21:37:53.021Z,92.34
2023-02-10T21:40:21.025Z,93.29
2023-02-10T21:42:49.024Z,93.43
2023-02-10T21:45:16.963Z,93.63
2023-02-10T21:47:44.806Z,93.41
2023-02-10T21:50:12.904Z,93.48
2023-02-10T21:52:42.435Z,93.65
2023-02-10T21:55:10.255Z,93.84
2023-02-10T21:57:38.833Z,93.96
2023-02-10T22:00:07.961Z,93.58
2023-02-10T22:02:36.812Z,94.08
2023-02-10T22:05:05.427Z,93.69
2023-02-10T22:07:33.388Z,93.39
2023-02-10T22:10:02.729Z,93.85
2023-02-10T22:12:30.692Z,93.72
2023-02-10T22:14:58.634Z,93.77
2023-02-10T22:17:26.685Z,93.64
2023-02-10T22:19:54.566Z,93.35
2023-02-10T22:22:22.497Z,93.04
2023-02-10T22:24:50.482Z,93.37
2023-02-10T22:27:19.724Z,93.34
2023-02-10T22:29:47.817Z,92.80
2023-02-10T22:32:16.047Z,92.96
2023-02-10T22:34:46.879Z,92.90
2023-02-10T22:37:14.929Z,92.73
2023-02-10T22:39:42.847Z,92.93
2023-02-10T22:42:11.029Z,92.77
2023-02-10T22:44:41.771Z,93.01
2023-02-10T22:47:09.836Z,93.04
2023-02-10T22:49:37.882Z,92.63
2023-02-10T22:52:08.060Z,93.12
2023-02-10T22:54:36.120Z,93.44
2023-02-10T22:57:04.353Z,93.54
2023-02-10T22:59:32.161Z,94.01
2023-02-10T23:02:01.508Z,93.94
2023-02-10T23:04:29.616Z,93.52
2023-02-10T23:06:57.490Z,93.43
2023-02-10T23:09:25.328Z,93.51
2023-02-10T23:11:53.769Z,94.05
2023-02-10T23:14:22.419Z,94.29
2023-02-10T23:16:52.764Z,94.51
2023-02-10T23:19:23.164Z,94.20
2023-02-10T23:21:51.777Z,94.10
2023-02-10T23:24:20.066Z,94.32
2023-02-10T23:26:47.998Z,94.26
2023-02-10T23:29:17.196Z,93.93
2023-02-10T23:31:45.770Z,94.57
2023-02-10T23:34:14.492Z,94.52
2023-02-10T23:36:44.452Z,94.77
2023-02-10T23:39:12.881Z,94.78
2023-02-10T23:41:41.102Z,94.49
2023-02-10T23:44:09.361Z,94.38
2023-02-10T23:46:37.370Z,94.57
2023-02-10T23:49:05.366Z,94.46
2023-02-10T23:51:33.173Z,94.43
2023-02-10T23:54:02.690Z,94.20
2023-02-10T23:56:31.131Z,94.31
2023-02-10T23:58:59.454Z,93.96
